createdAt,value
2023-04-27T06:21:10.638Z,5.61
2023-04-27T06:31:10.762Z,5.84
2023-04-27T06:41:10.781Z,6.36
2023-04-27T06:51:10.642Z,6.35
2023-04-27T07:01:10.581Z,7.08
2023-04-27T07:11:10.595Z,7.01
2023-04-27T07:21:10.865Z,7.17
2023-04-27T07:31:11.130Z,7.38
2023-04-27T07:41:11.170Z,7.65
2023-04-27T07:51:11.230Z,8.83
2023-04-27T08:01:11.328Z,7.60
2023-04-27T08:11:11.383Z,7.84
2023-04-27T08:21:11.743Z,8.23
2023-04-27T08:31:12.022Z,8.06
2023-04-27T08:41:21.210Z,7.77
2023-04-27T08:51:11.952Z,8.70
2023-04-27T09:01:11.792Z,9.72
2023-04-27T09:11:11.964Z,10.98
2023-04-27T09:21:12.144Z,8.36
2023-04-27T09:31:12.061Z,9.09
2023-04-27T09:41:11.962Z,10.09
2023-04-27T09:51:11.887Z,9.24
2023-04-27T10:01:12.011Z,8.52
2023-04-27T10:11:11.950Z,9.30
2023-04-27T10:21:11.853Z,10.70
2023-04-27T10:31:12.259Z,11.17
2023-04-27T10:41:12.162Z,10.83
2023-04-27T10:51:12.126Z,10.18
2023-04-27T11:01:12.416Z,9.74
2023-04-27T11:11:13.421Z,11.34
2023-04-27T11:21:12.354Z,10.14
2023-04-27T11:31:12.370Z,10.79
2023-04-27T11:41:12.567Z,11.55
2023-04-27T11:51:12.334Z,10.77
2023-04-27T12:01:12.268Z,10.14
2023-04-27T12:11:12.414Z,10.04
2023-04-27T12:21:12.398Z,10.53
2023-04-27T12:31:12.402Z,10.66
2023-04-27T12:41:12.270Z,11.87
2023-04-27T12:51:12.392Z,12.62
2023-04-27T13:01:12.595Z,11.73
2023-04-27T13:11:12.526Z,10.73
2023-04-27T13:21:12.178Z,11.66
2023-04-27T13:31:12.141Z,11.57
2023-04-27T13:41:12.184Z,12.59
2023-04-27T13:51:12.384Z,12.60
2023-04-27T14:01:12.365Z,10.61
2023-04-27T14:11:12.198Z,10.51
2023-04-27T14:21:12.225Z,10.59
2023-04-27T14:31:12.345Z,10.93
2023-04-27T14:41:12.426Z,11.77
2023-04-27T14:51:12.506Z,11.86
2023-04-27T15:01:12.381Z,11.89
2023-04-27T15:11:12.432Z,11.52
2023-04-27T15:21:12.341Z,12.81
2023-04-27T15:31:12.331Z,12.70
2023-04-27T15:41:12.414Z,15.24
2023-04-27T15:51:12.456Z,12.75
2023-04-27T16:01:12.473Z,12.17
2023-04-27T16:11:12.584Z,12.06
2023-04-27T16:21:12.456Z,11.61
2023-04-27T16:31:12.519Z,11.45
2023-04-27T16:41:12.446Z,10.79
2023-04-27T16:51:12.619Z,10.58
2023-04-27T17:01:12.761Z,10.77
2023-04-27T17:11:12.480Z,11.23
2023-04-27T17:21:12.542Z,10.88
2023-04-27T17:31:12.661Z,10.46
2023-04-27T17:41:12.588Z,10.22
2023-04-27T17:51:12.517Z,9.73
2023-04-27T18:01:12.601Z,9.23
2023-04-27T18:11:12.576Z,9.35
2023-04-27T18:21:12.743Z,8.90
2023-04-27T18:31:12.800Z,8.41
2023-04-27T18:41:12.554Z,7.92
2023-04-27T18:51:12.634Z,7.51
2023-04-27T19:01:13.257Z,7.16
2023-04-27T19:11:12.640Z,6.99
2023-04-27T19:21:13.009Z,7.11
